Terminal Aerodrome Forecast
Issued by NWS North Platte, NE

Home | Current Version | Previous Version | Text Only | Print | Product List | Glossary Off
Versions: 1 2 3 4 5 6 7 8 9 10 11 12 13 14 15 16

000
FTUS43 KLBF 171500 AAB
TAFVTN
TAF AMD
KVTN 171507Z 1715/1812 34012G19KT P6SM SCT025
     FM171600 34015KT P6SM SCT150
     FM180000 VRB04KT P6SM SKC
     FM180800 07005KT P6SM OVC020=

USA.gov is the U.S. government's official web portal to all federal, state and local government web resources and services.